Time;durP1;ratioP1;P1;durP2;ratioP2;P2;SDS_P1;SDS_P2;PMS_P1;PMS_P2;Temp;Humidity;BMP_temperature;BMP_pressure;BME280_temperature;BME280_humidity;BME280_pressure;Samples;Min_cycle;Max_cycle;Signal;HPM_P1;HPM_P2
2023/10/09 00:02:32;;;;;;;8.25;7.47;;;;;;;;;;4147505;28;20581;-70
2023/10/09 00:04:36;;;;;;;8.50;7.90;;;;;;;;;;4147501;28;20077;-70
2023/10/09 00:06:38;;;;;;;8.00;7.60;;;;;;;;;;4147685;28;20042;-70
2023/10/09 00:08:44;;;;;;;9.45;8.60;;;;;;;;;;4147437;28;20092;-70
2023/10/09 00:10:53;;;;;;;9.07;8.45;;;;;;;;;;4147460;28;20038;-69
2023/10/09 00:12:55;;;;;;;9.20;8.32;;;;;;;;;;4147737;28;20038;-70
2023/10/09 00:15:05;;;;;;;7.97;7.40;;;;;;;;;;4147573;28;20445;-70
2023/10/09 00:19:30;;;;;;;8.77;8.18;;;;;;;;;;4147440;28;20107;-70
2023/10/09 00:21:34;;;;;;;8.25;7.75;;;;;;;;;;4147339;28;20046;-70
2023/10/09 00:23:36;;;;;;;8.57;8.07;;;;;;;;;;4147395;28;20044;-69
2023/10/09 00:25:44;;;;;;;8.20;7.70;;;;;;;;;;4147472;28;20461;-70
2023/10/09 00:27:46;;;;;;;7.35;7.03;;;;;;;;;;4147707;28;20065;-70
2023/10/09 00:29:48;;;;;;;8.07;7.82;;;;;;;;;;4147465;28;20048;-70
2023/10/09 00:31:51;;;;;;;;;;;;;;;;;;4148015;28;20080;-70
2023/10/09 00:33:54;;;;;;;8.40;7.90;;;;;;;;;;4147229;28;19929;-70
2023/10/09 00:35:56;;;;;;;7.93;7.60;;;;;;;;;;4147290;28;20038;-70
2023/10/09 00:38:06;;;;;;;10.43;9.55;;;;;;;;;;4148531;28;20049;-70
2023/10/09 00:40:21;;;;;;;8.85;8.10;;;;;;;;;;4151014;28;20052;-70
2023/10/09 00:42:33;;;;;;;8.48;8.05;;;;;;;;;;4166730;28;20050;-69
2023/10/09 00:44:38;;;;;;;9.05;8.43;;;;;;;;;;4166769;28;20041;-70
2023/10/09 00:46:43;;;;;;;9.20;8.68;;;;;;;;;;4159348;28;20635;-70
2023/10/09 00:48:48;;;;;;;9.70;9.02;;;;;;;;;;4150356;28;20100;-70
2023/10/09 00:50:52;;;;;;;9.80;9.05;;;;;;;;;;4150143;28;20042;-70
2023/10/09 00:53:02;;;;;;;10.07;9.32;;;;;;;;;;4150077;28;20450;-70
2023/10/09 00:55:08;;;;;;;10.40;9.85;;;;;;;;;;4150246;28;20609;-70
2023/10/09 00:57:13;;;;;;;9.88;8.98;;;;;;;;;;4150230;28;20122;-70
2023/10/09 00:59:16;;;;;;;9.35;8.95;;;;;;;;;;4149525;28;20048;-70
2023/10/09 01:01:17;;;;;;;;;;;;;;;;;;4150693;28;20399;-63
2023/10/09 01:03:20;;;;;;;8.65;7.80;;;;;;;;;;4146764;28;19921;-64
2023/10/09 01:05:26;;;;;;;9.82;9.00;;;;;;;;;;4159235;28;20080;-65
2023/10/09 01:07:31;;;;;;;8.48;8.18;;;;;;;;;;4166550;28;20045;-63
2023/10/09 01:09:43;;;;;;;8.93;8.63;;;;;;;;;;4166355;28;20461;-64
2023/10/09 01:11:49;;;;;;;8.88;8.55;;;;;;;;;;4164832;28;20041;-63
2023/10/09 01:15:52;;;;;;;7.35;6.97;;;;;;;;;;4166184;28;20041;-63
2023/10/09 01:17:54;;;;;;;9.18;8.55;;;;;;;;;;4163861;28;20049;-63
2023/10/09 01:19:58;;;;;;;6.93;6.63;;;;;;;;;;4149753;28;20478;-64
2023/10/09 01:22:12;;;;;;;8.07;7.78;;;;;;;;;;4149580;28;20042;-63
2023/10/09 01:24:15;;;;;;;7.82;7.32;;;;;;;;;;4149823;28;20061;-63
2023/10/09 01:26:19;;;;;;;8.43;7.97;;;;;;;;;;4149593;28;20080;-65
2023/10/09 01:28:20;;;;;;;;;;;;;;;;;;4150156;28;20049;-64
2023/10/09 01:30:23;;;;;;;7.88;7.38;;;;;;;;;;4149559;28;19928;-64
2023/10/09 01:32:26;;;;;;;;;;;;;;;;;;4150064;28;20038;-64
2023/10/09 01:34:41;;;;;;;7.40;6.88;;;;;;;;;;4149540;28;19921;-65
2023/10/09 01:36:43;;;;;;;9.05;8.40;;;;;;;;;;4149394;28;20050;-64
2023/10/09 01:38:47;;;;;;;8.40;7.75;;;;;;;;;;4149328;28;20402;-63
2023/10/09 01:40:51;;;;;;;7.40;7.00;;;;;;;;;;4149392;28;20081;-63
2023/10/09 01:42:54;;;;;;;8.65;8.07;;;;;;;;;;4149696;28;20050;-64
2023/10/09 01:44:58;;;;;;;8.93;8.52;;;;;;;;;;4149212;28;20037;-64
2023/10/09 01:47:06;;;;;;;7.57;7.38;;;;;;;;;;4148982;28;20069;-65
2023/10/09 01:49:17;;;;;;;9.18;8.55;;;;;;;;;;4148565;28;20053;-64
2023/10/09 01:51:20;;;;;;;9.85;9.00;;;;;;;;;;4149274;28;20540;-64
2023/10/09 01:53:27;;;;;;;8.40;7.88;;;;;;;;;;4149267;28;20049;-63
2023/10/09 01:55:39;;;;;;;10.65;9.98;;;;;;;;;;4149266;28;20038;-63
2023/10/09 01:57:44;;;;;;;9.70;9.30;;;;;;;;;;4149138;28;20434;-64
2023/10/09 01:59:56;;;;;;;10.10;9.70;;;;;;;;;;4149117;28;20413;-65
2023/10/09 02:02:06;;;;;;;10.38;9.80;;;;;;;;;;4149000;28;20044;-65
2023/10/09 02:04:13;;;;;;;11.48;10.88;;;;;;;;;;4149119;28;20091;-64
2023/10/09 02:06:26;;;;;;;11.15;10.45;;;;;;;;;;4132841;28;20085;-63
2023/10/09 02:08:35;;;;;;;11.25;10.55;;;;;;;;;;4132850;28;20070;-63
2023/10/09 02:10:47;;;;;;;12.27;11.40;;;;;;;;;;4132701;28;20068;-64
2023/10/09 02:12:53;;;;;;;10.60;10.15;;;;;;;;;;4132574;28;20414;-64
2023/10/09 02:14:55;;;;;;;10.60;10.20;;;;;;;;;;4141265;28;20383;-63
2023/10/09 02:17:06;;;;;;;12.45;12.07;;;;;;;;;;4148664;28;20536;-64
2023/10/09 02:19:29;;;;;;;12.15;11.20;;;;;;;;;;4148902;28;20642;-64
2023/10/09 02:21:34;;;;;;;11.65;10.95;;;;;;;;;;4148676;28;20049;-64
2023/10/09 02:25:43;;;;;;;10.68;10.05;;;;;;;;;;4148584;28;20053;-64
2023/10/09 02:27:53;;;;;;;11.20;10.75;;;;;;;;;;4148607;28;20050;-64
2023/10/09 02:29:58;;;;;;;12.40;11.55;;;;;;;;;;4148891;28;20038;-64
2023/10/09 02:32:13;;;;;;;11.88;11.48;;;;;;;;;;4148403;28;20125;-64
2023/10/09 02:34:15;;;;;;;12.65;11.95;;;;;;;;;;4148428;28;20416;-63
2023/10/09 02:36:18;;;;;;;12.35;11.85;;;;;;;;;;4148616;28;20046;-65
2023/10/09 02:38:22;;;;;;;14.95;13.85;;;;;;;;;;4148465;28;20074;-63
2023/10/09 02:40:32;;;;;;;13.52;12.75;;;;;;;;;;4148302;28;20038;-63
2023/10/09 02:42:34;;;;;;;13.27;12.68;;;;;;;;;;4148420;28;20050;-63
2023/10/09 02:44:40;;;;;;;12.55;11.88;;;;;;;;;;4148637;28;20046;-63
2023/10/09 02:46:44;;;;;;;13.07;12.02;;;;;;;;;;4148056;28;20037;-63
2023/10/09 02:48:52;;;;;;;12.52;11.68;;;;;;;;;;4148494;28;20046;-64
2023/10/09 02:50:54;;;;;;;11.57;11.02;;;;;;;;;;4148529;28;20044;-63
2023/10/09 02:52:59;;;;;;;10.15;9.68;;;;;;;;;;4148445;28;20124;-64
2023/10/09 02:55:08;;;;;;;9.77;9.00;;;;;;;;;;4148256;28;20088;-64
2023/10/09 02:57:15;;;;;;;10.57;9.98;;;;;;;;;;4148172;28;20061;-64
2023/10/09 02:59:21;;;;;;;10.45;9.82;;;;;;;;;;4148385;28;20050;-64
2023/10/09 03:01:23;;;;;;;10.68;9.85;;;;;;;;;;4147656;28;20046;-63
2023/10/09 03:03:25;;;;;;;8.90;8.53;;;;;;;;;;4147984;28;20137;-63
2023/10/09 03:05:28;;;;;;;11.48;10.48;;;;;;;;;;4146900;28;20316;-63
2023/10/09 03:07:30;;;;;;;7.85;7.55;;;;;;;;;;4148026;28;20116;-64
2023/10/09 03:09:32;;;;;;;10.20;9.27;;;;;;;;;;4148210;28;20041;-64
2023/10/09 03:11:35;;;;;;;9.90;9.23;;;;;;;;;;4147928;28;20046;-64
2023/10/09 03:13:37;;;;;;;9.50;8.77;;;;;;;;;;4148117;28;20124;-63
2023/10/09 03:15:39;;;;;;;9.02;8.32;;;;;;;;;;4148024;28;20088;-63
2023/10/09 03:17:42;;;;;;;7.93;7.53;;;;;;;;;;4148267;28;20073;-64
2023/10/09 03:19:45;;;;;;;9.10;8.43;;;;;;;;;;4147928;28;20363;-64
2023/10/09 03:21:47;;;;;;;10.57;8.43;;;;;;;;;;4148029;28;20056;-63
2023/10/09 03:23:49;;;;;;;9.00;8.15;;;;;;;;;;4147900;28;20459;-63
2023/10/09 03:25:51;;;;;;;8.07;7.57;;;;;;;;;;4147772;28;20525;-63
2023/10/09 03:27:56;;;;;;;8.27;7.88;;;;;;;;;;4148074;28;20048;-63
2023/10/09 03:29:57;;;;;;;7.25;6.75;;;;;;;;;;4138467;28;20038;-65
2023/10/09 03:32:00;;;;;;;7.72;7.05;;;;;;;;;;4146008;28;20063;-64
2023/10/09 03:34:02;;;;;;;6.97;6.53;;;;;;;;;;4147843;28;20417;-64
2023/10/09 03:36:09;;;;;;;6.20;5.90;;;;;;;;;;4147620;28;20030;-64
2023/10/09 03:38:17;;;;;;;8.80;8.27;;;;;;;;;;4147716;28;20042;-64
2023/10/09 03:40:19;;;;;;;8.18;7.65;;;;;;;;;;4147416;28;20573;-64
2023/10/09 03:42:22;;;;;;;8.68;8.02;;;;;;;;;;4147702;28;20042;-64
2023/10/09 03:44:28;;;;;;;8.40;7.88;;;;;;;;;;4146653;28;20041;-64
2023/10/09 03:46:36;;;;;;;8.23;7.55;;;;;;;;;;4143333;28;20129;-64
2023/10/09 03:48:38;;;;;;;7.35;7.05;;;;;;;;;;4131774;28;20070;-63
2023/10/09 03:50:43;;;;;;;7.80;7.10;;;;;;;;;;4131449;28;20038;-63
2023/10/09 03:52:44;;;;;;;8.75;8.23;;;;;;;;;;4131479;28;20045;-63
2023/10/09 03:54:46;;;;;;;10.43;9.93;;;;;;;;;;4131372;28;20038;-64
2023/10/09 03:56:54;;;;;;;10.75;10.13;;;;;;;;;;4131325;28;20047;-63
2023/10/09 03:58:56;;;;;;;10.43;9.95;;;;;;;;;;4131604;28;20137;-63
2023/10/09 04:00:57;;;;;;;10.10;9.80;;;;;;;;;;4131484;28;20053;-64
2023/10/09 04:02:59;;;;;;;8.95;8.32;;;;;;;;;;4131148;28;20065;-64
2023/10/09 04:05:01;;;;;;;8.32;7.88;;;;;;;;;;4144262;28;20040;-63
2023/10/09 04:07:03;;;;;;;8.63;8.10;;;;;;;;;;4158146;28;20053;-64
2023/10/09 04:11:22;;;;;;;6.90;6.35;;;;;;;;;;4145257;28;20042;-64
2023/10/09 04:13:32;;;;;;;7.57;7.07;;;;;;;;;;4149465;28;20045;-63
2023/10/09 04:15:35;;;;;;;7.68;7.07;;;;;;;;;;4150854;28;20494;-64
2023/10/09 04:17:42;;;;;;;8.40;7.70;;;;;;;;;;4150922;28;20038;-63
2023/10/09 04:22:25;;;;;;;8.60;7.70;;;;;;;;;;4142156;28;20513;-64
2023/10/09 04:24:27;;;;;;;8.55;8.05;;;;;;;;;;4150566;28;20088;-63
2023/10/09 04:26:29;;;;;;;8.27;7.82;;;;;;;;;;4162493;28;20417;-63
2023/10/09 04:28:33;;;;;;;8.02;7.35;;;;;;;;;;4166985;28;20037;-63
2023/10/09 04:30:40;;;;;;;8.18;7.55;;;;;;;;;;4163714;28;20529;-63
2023/10/09 04:32:45;;;;;;;7.35;6.85;;;;;;;;;;4150392;28;20046;-64
2023/10/09 04:34:55;;;;;;;7.65;7.35;;;;;;;;;;4150500;28;20375;-64
2023/10/09 04:37:00;;;;;;;12.43;7.25;;;;;;;;;;4150681;28;20482;-63
2023/10/09 04:41:08;;;;;;;7.88;7.07;;;;;;;;;;4150107;28;20136;-64
2023/10/09 04:43:20;;;;;;;8.07;7.32;;;;;;;;;;4150171;28;20568;-63
2023/10/09 04:46:00;;;;;;;7.40;6.75;;;;;;;;;;4150336;28;20050;-64
2023/10/09 04:47:57;;;;;;;6.15;5.75;;;;;;;;;;4135808;28;20081;-63
2023/10/09 04:52:07;;;;;;;7.25;6.72;;;;;;;;;;4133951;28;20038;-64
2023/10/09 04:54:19;;;;;;;7.70;7.43;;;;;;;;;;4134155;28;20049;-63
2023/10/09 04:56:24;;;;;;;8.23;7.78;;;;;;;;;;4133866;28;20491;-63
2023/10/09 04:58:26;;;;;;;6.75;6.32;;;;;;;;;;4133981;28;20035;-63
2023/10/09 05:02:36;;;;;;;;;;;;;;;;;;4150276;28;20132;-64
2023/10/09 05:06:54;;;;;;;8.50;7.72;;;;;;;;;;4149791;28;20037;-65
2023/10/09 05:09:07;;;;;;;7.78;7.38;;;;;;;;;;4149941;28;20403;-64
2023/10/09 05:11:15;;;;;;;7.60;6.95;;;;;;;;;;4133751;28;20125;-64
2023/10/09 05:13:42;;;;;;;8.15;7.75;;;;;;;;;;4133790;28;20569;-64
2023/10/09 05:15:46;;;;;;;8.32;7.90;;;;;;;;;;4133556;28;20039;-64
2023/10/09 05:17:56;;;;;;;9.98;9.10;;;;;;;;;;4142726;28;20057;-64
2023/10/09 05:20:55;;;;;;;9.07;8.45;;;;;;;;;;4149802;28;20453;-64
2023/10/09 05:22:38;;;;;;;9.10;8.25;;;;;;;;;;4149567;28;20042;-64
2023/10/09 05:24:43;;;;;;;10.73;10.27;;;;;;;;;;4148358;28;20050;-64
2023/10/09 05:28:52;;;;;;;11.60;10.82;;;;;;;;;;4149614;28;20483;-64
2023/10/09 05:31:07;;;;;;;9.63;9.18;;;;;;;;;;4148928;28;20030;-65
2023/10/09 05:35:39;;;;;;;9.32;8.80;;;;;;;;;;4149441;28;20129;-64
2023/10/09 05:37:45;;;;;;;9.27;8.52;;;;;;;;;;4149641;28;20088;-64
2023/10/09 05:42:09;;;;;;;8.43;7.85;;;;;;;;;;4149524;28;20111;-65
2023/10/09 05:46:48;;;;;;;9.43;8.45;;;;;;;;;;4149269;28;20046;-64
2023/10/09 05:48:54;;;;;;;8.98;8.50;;;;;;;;;;4148893;28;20038;-65
2023/10/09 05:53:06;;;;;;;9.07;8.52;;;;;;;;;;4148775;28;20038;-69
2023/10/09 06:03:23;;;;;;;8.15;7.63;;;;;;;;;;4151224;28;20052;-64
2023/10/09 06:04:57;;;;;;;7.18;6.47;;;;;;;;;;4150488;28;20038;-64
2023/10/09 06:07:11;;;;;;;8.23;6.47;;;;;;;;;;4149116;28;20449;-64
2023/10/09 06:13:45;;;;;;;7.97;6.15;;;;;;;;;;4147494;28;20457;-65
2023/10/09 06:17:52;;;;;;;;;;;;;;;;;;4147339;28;20104;-65
2023/10/09 06:20:39;;;;;;;6.97;6.30;;;;;;;;;;4137421;28;19929;-64
2023/10/09 06:24:42;;;;;;;9.55;6.68;;;;;;;;;;4134907;28;20093;-65
2023/10/09 06:29:16;;;;;;;7.28;6.78;;;;;;;;;;4155007;28;20038;-64
2023/10/09 06:31:57;;;;;;;7.50;5.57;;;;;;;;;;4148804;28;20465;-64
2023/10/09 06:34:15;;;;;;;5.95;5.55;;;;;;;;;;4148744;28;20049;-64
2023/10/09 06:36:17;;;;;;;7.55;6.70;;;;;;;;;;4146691;28;20042;-65
2023/10/09 06:38:22;;;;;;;6.78;6.15;;;;;;;;;;4148722;28;20053;-65
2023/10/09 06:42:51;;;;;;;5.13;4.85;;;;;;;;;;4148438;28;20053;-65
2023/10/09 06:44:52;;;;;;;4.05;3.45;;;;;;;;;;4148398;28;20089;-65
2023/10/09 06:46:57;;;;;;;12.27;4.57;;;;;;;;;;4139896;28;20565;-64
2023/10/09 06:48:59;;;;;;;4.78;4.32;;;;;;;;;;4138475;28;20292;-65
2023/10/09 06:56:22;;;;;;;5.63;3.95;;;;;;;;;;4115024;28;20086;-65
2023/10/09 06:58:27;;;;;;;7.63;4.35;;;;;;;;;;4122978;28;20109;-65
2023/10/09 07:02:49;;;;;;;6.28;3.85;;;;;;;;;;4112930;28;20059;-65
2023/10/09 07:04:54;;;;;;;4.85;4.47;;;;;;;;;;4118357;28;20109;-65
2023/10/09 07:07:01;;;;;;;9.27;5.68;;;;;;;;;;4130137;28;20081;-64
2023/10/09 07:13:29;;;;;;;11.70;6.57;;;;;;;;;;4097739;29;20055;-64
2023/10/09 07:17:52;;;;;;;8.63;7.50;;;;;;;;;;4113805;28;20113;-64
2023/10/09 07:21:57;;;;;;;5.90;5.43;;;;;;;;;;4111649;28;20046;-65
2023/10/09 07:24:17;;;;;;;9.68;7.25;;;;;;;;;;4110519;28;20126;-66
2023/10/09 07:26:23;;;;;;;13.95;6.57;;;;;;;;;;4115881;28;20054;-65
2023/10/09 07:28:29;;;;;;;12.77;6.07;;;;;;;;;;4146525;28;20457;-65
2023/10/09 07:32:35;;;;;;;6.57;6.22;;;;;;;;;;4146462;28;20506;-64
2023/10/09 07:34:57;;;;;;;7.18;4.57;;;;;;;;;;4146208;28;20038;-64
2023/10/09 07:37:03;;;;;;;8.85;4.53;;;;;;;;;;4145824;28;20041;-64
2023/10/09 07:39:15;;;;;;;7.65;4.78;;;;;;;;;;4149708;28;20038;-64
2023/10/09 07:43:18;;;;;;;4.53;3.13;;;;;;;;;;4150235;28;20486;-64
2023/10/09 07:49:48;;;;;;;5.90;4.43;;;;;;;;;;4138182;28;20108;-64
2023/10/09 07:51:52;;;;;;;6.40;4.60;;;;;;;;;;4147031;28;20041;-64
2023/10/09 07:53:57;;;;;;;6.95;4.32;;;;;;;;;;4145988;28;20045;-64
2023/10/09 07:56:06;;;;;;;6.55;5.65;;;;;;;;;;4146465;28;20153;-64
2023/10/09 07:58:11;;;;;;;9.00;3.88;;;;;;;;;;4147017;28;20042;-64
2023/10/09 08:02:36;;;;;;;7.85;5.40;;;;;;;;;;4136165;28;20061;-64
2023/10/09 08:04:39;;;;;;;5.07;4.65;;;;;;;;;;4149319;28;20049;-64
2023/10/09 08:06:44;;;;;;;6.60;5.95;;;;;;;;;;4156887;28;20044;-64
2023/10/09 08:14:07;;;;;;;5.40;4.18;;;;;;;;;;4147129;28;20118;-64
2023/10/09 08:16:17;;;;;;;8.48;3.55;;;;;;;;;;4147292;28;20101;-64
2023/10/09 08:18:27;;;;;;;3.85;3.45;;;;;;;;;;4147230;28;20111;-64
2023/10/09 08:22:52;;;;;;;7.15;3.08;;;;;;;;;;4147417;28;20050;-64
2023/10/09 08:24:57;;;;;;;3.83;3.53;;;;;;;;;;4144300;28;20074;-64
2023/10/09 08:29:20;;;;;;;11.80;3.58;;;;;;;;;;4145876;28;20029;-64
2023/10/09 08:33:42;;;;;;;12.32;3.33;;;;;;;;;;4143639;28;20103;-63
2023/10/09 08:35:47;;;;;;;9.50;4.80;;;;;;;;;;4145928;28;20096;-66
2023/10/09 08:37:50;;;;;;;4.38;3.20;;;;;;;;;;4145548;28;20133;-63
2023/10/09 08:39:54;;;;;;;2.83;2.65;;;;;;;;;;4147041;28;20050;-63
2023/10/09 08:41:58;;;;;;;5.47;4.07;;;;;;;;;;4144595;28;20156;-63
2023/10/09 08:44:03;;;;;;;7.70;3.10;;;;;;;;;;4145202;28;20042;-63
2023/10/09 08:46:05;;;;;;;3.75;2.55;;;;;;;;;;4131813;28;20407;-63
2023/10/09 08:48:08;;;;;;;5.80;2.75;;;;;;;;;;4146482;28;20048;-64
2023/10/09 08:50:14;;;;;;;7.05;3.20;;;;;;;;;;4135683;28;20121;-64
2023/10/09 08:52:16;;;;;;;4.22;2.72;;;;;;;;;;4146974;28;20030;-64
2023/10/09 08:54:18;;;;;;;4.43;2.43;;;;;;;;;;4146413;28;20046;-65
2023/10/09 08:56:23;;;;;;;3.10;2.80;;;;;;;;;;4146918;28;20296;-64
2023/10/09 08:58:32;;;;;;;3.47;2.80;;;;;;;;;;4146657;28;20042;-64
2023/10/09 09:00:34;;;;;;;7.00;2.42;;;;;;;;;;4148404;28;20044;-64
2023/10/09 09:02:36;;;;;;;7.63;2.97;;;;;;;;;;4147961;28;20054;-64
2023/10/09 09:04:39;;;;;;;3.45;2.28;;;;;;;;;;4151284;28;20341;-64
2023/10/09 09:06:41;;;;;;;9.27;2.25;;;;;;;;;;4144694;28;20487;-64
2023/10/09 09:08:44;;;;;;;5.55;2.33;;;;;;;;;;4149012;28;20041;-64
2023/10/09 09:10:50;;;;;;;6.75;2.40;;;;;;;;;;4148637;28;20088;-64
2023/10/09 09:13:00;;;;;;;3.63;2.40;;;;;;;;;;4149949;28;20042;-64
2023/10/09 09:15:03;;;;;;;10.68;3.03;;;;;;;;;;4146864;28;20038;-64
2023/10/09 09:17:11;;;;;;;7.63;1.92;;;;;;;;;;4148217;28;20040;-64
2023/10/09 09:19:19;;;;;;;8.38;2.45;;;;;;;;;;4150554;28;20041;-64
2023/10/09 09:21:24;;;;;;;4.40;1.88;;;;;;;;;;4149199;28;20042;-64
2023/10/09 09:23:26;;;;;;;4.55;1.70;;;;;;;;;;4147917;28;20038;-64
2023/10/09 09:25:39;;;;;;;4.28;2.85;;;;;;;;;;4147394;28;20120;-64
2023/10/09 09:27:52;;;;;;;3.47;2.33;;;;;;;;;;4149812;28;20042;-64
2023/10/09 09:29:54;;;;;;;2.88;2.33;;;;;;;;;;4149101;28;20068;-64
2023/10/09 09:32:15;;;;;;;6.75;3.15;;;;;;;;;;4149244;28;20038;-64
2023/10/09 09:34:17;;;;;;;4.35;2.50;;;;;;;;;;4149831;28;20124;-64
2023/10/09 09:36:20;;;;;;;4.10;2.55;;;;;;;;;;4149514;28;20485;-64
2023/10/09 09:38:23;;;;;;;3.53;2.90;;;;;;;;;;4144496;28;20030;-64
2023/10/09 09:40:29;;;;;;;11.02;2.83;;;;;;;;;;4146060;28;20053;-64
2023/10/09 09:42:36;;;;;;;4.70;2.05;;;;;;;;;;4149521;28;20069;-64
2023/10/09 09:44:44;;;;;;;9.50;3.80;;;;;;;;;;4143434;28;20069;-65
2023/10/09 09:46:46;;;;;;;8.23;2.38;;;;;;;;;;4132919;28;20073;-64
2023/10/09 09:48:48;;;;;;;6.40;2.65;;;;;;;;;;4145436;28;20038;-64
2023/10/09 09:50:54;;;;;;;4.28;2.85;;;;;;;;;;4148204;28;20042;-64
2023/10/09 09:52:56;;;;;;;3.45;3.10;;;;;;;;;;4149212;28;20521;-64
2023/10/09 09:54:58;;;;;;;6.43;3.08;;;;;;;;;;4149484;28;20034;-64
2023/10/09 09:57:08;;;;;;;4.85;3.58;;;;;;;;;;4149302;28;20042;-64
2023/10/09 09:59:21;;;;;;;5.22;3.05;;;;;;;;;;4149298;28;20125;-64
2023/10/09 10:01:26;;;;;;;3.45;2.80;;;;;;;;;;4149040;28;20458;-64
2023/10/09 10:03:34;;;;;;;3.40;3.05;;;;;;;;;;4148430;28;20054;-64
2023/10/09 10:05:37;;;;;;;4.28;2.88;;;;;;;;;;4150240;28;20073;-64
2023/10/09 10:07:43;;;;;;;6.60;2.65;;;;;;;;;;4148983;28;20100;-64
2023/10/09 10:09:48;;;;;;;3.00;2.28;;;;;;;;;;4147738;28;20724;-64
2023/10/09 10:11:52;;;;;;;2.90;2.70;;;;;;;;;;4147764;28;20046;-64
2023/10/09 10:13:56;;;;;;;;;;;;;;;;;;4135282;28;20403;-65
2023/10/09 10:15:58;;;;;;;3.75;2.40;;;;;;;;;;4131930;28;19925;-64
2023/10/09 10:18:00;;;;;;;3.78;2.22;;;;;;;;;;4132341;28;20085;-64
2023/10/09 10:22:29;;;;;;;6.45;2.85;;;;;;;;;;4134019;28;19929;-66
2023/10/09 10:24:32;;;;;;;4.07;2.72;;;;;;;;;;4146580;28;20410;-64
2023/10/09 10:26:34;;;;;;;5.57;2.55;;;;;;;;;;4141336;28;20034;-67
2023/10/09 10:28:38;;;;;;;3.75;2.85;;;;;;;;;;4142235;28;20038;-65
2023/10/09 10:30:45;;;;;;;3.50;3.17;;;;;;;;;;4142017;28;20072;-65
2023/10/09 10:32:54;;;;;;;4.03;3.03;;;;;;;;;;4139359;28;20042;-65
2023/10/09 10:34:55;;;;;;;2.17;1.90;;;;;;;;;;4141183;28;20053;-65
2023/10/09 10:37:00;;;;;;;2.65;2.45;;;;;;;;;;4143673;28;20045;-64
2023/10/09 10:39:21;;;;;;;3.28;2.90;;;;;;;;;;4144818;28;20111;-65
2023/10/09 10:41:23;;;;;;;5.50;3.00;;;;;;;;;;4143576;28;20072;-64
2023/10/09 10:44:00;;;;;;;4.10;2.42;;;;;;;;;;4141768;28;20053;-66
2023/10/09 10:46:00;;;;;;;2.65;2.45;;;;;;;;;;4136090;28;20111;-64
2023/10/09 10:48:07;;;;;;;3.35;2.40;;;;;;;;;;4140829;28;20550;-65
2023/10/09 10:52:41;;;;;;;4.53;2.67;;;;;;;;;;4138189;28;20030;-65
2023/10/09 10:56:49;;;;;;;2.30;2.10;;;;;;;;;;4139193;28;20038;-65
2023/10/09 10:59:22;;;;;;;6.35;2.83;;;;;;;;;;4139096;28;20740;-65
2023/10/09 11:01:17;;;;;;;5.57;2.58;;;;;;;;;;4143431;28;20048;-64
2023/10/09 11:03:29;;;;;;;2.80;2.55;;;;;;;;;;4141217;28;20151;-64
2023/10/09 11:05:39;;;;;;;2.35;2.13;;;;;;;;;;4157853;28;20091;-64
2023/10/09 11:07:41;;;;;;;2.65;2.22;;;;;;;;;;4142914;28;20049;-64
2023/10/09 11:09:58;;;;;;;;;;;;;;;;;;4147614;28;20077;-64
2023/10/09 11:12:21;;;;;;;6.10;2.95;;;;;;;;;;4131513;28;20025;-64
2023/10/09 11:14:23;;;;;;;11.98;3.25;;;;;;;;;;4134769;28;20610;-64
2023/10/09 11:18:42;;;;;;;4.05;2.30;;;;;;;;;;4146803;28;20049;-65
2023/10/09 11:25:13;;;;;;;4.18;2.38;;;;;;;;;;4139871;28;20058;-64
2023/10/09 11:27:20;;;;;;;;;;;;;;;;;;4145331;28;20053;-64
2023/10/09 11:31:59;;;;;;;4.35;2.92;;;;;;;;;;4144093;28;20042;-65
2023/10/09 11:34:02;;;;;;;4.63;2.42;;;;;;;;;;4143448;28;20041;-65
2023/10/09 11:36:07;;;;;;;6.10;2.22;;;;;;;;;;4144561;28;20038;-65
2023/10/09 11:38:21;;;;;;;3.35;2.45;;;;;;;;;;4143603;28;20108;-65
2023/10/09 11:41:06;;;;;;;6.22;2.75;;;;;;;;;;4146578;28;20133;-65
2023/10/09 11:43:13;;;;;;;6.00;2.17;;;;;;;;;;4147706;28;20037;-65
2023/10/09 11:45:28;;;;;;;7.85;2.58;;;;;;;;;;4139794;28;20108;-65
2023/10/09 11:47:45;;;;;;;4.00;2.65;;;;;;;;;;4135246;28;20042;-65
2023/10/09 11:54:28;;;;;;;4.95;2.35;;;;;;;;;;4147489;28;20068;-64
2023/10/09 11:56:32;;;;;;;8.45;2.80;;;;;;;;;;4147280;28;20100;-65
2023/10/09 11:58:34;;;;;;;4.63;2.80;;;;;;;;;;4147055;28;20042;-65
2023/10/09 12:00:45;;;;;;;12.15;2.50;;;;;;;;;;4145200;28;20510;-64
2023/10/09 12:02:49;;;;;;;3.50;2.60;;;;;;;;;;4147007;28;20058;-66
2023/10/09 12:04:51;;;;;;;3.75;2.63;;;;;;;;;;4145440;28;20046;-65
2023/10/09 12:07:06;;;;;;;5.60;2.65;;;;;;;;;;4144136;28;20084;-66
2023/10/09 12:09:15;;;;;;;4.00;2.47;;;;;;;;;;4147138;28;20038;-65
2023/10/09 12:11:28;;;;;;;2.90;2.67;;;;;;;;;;4147491;28;20092;-64
2023/10/09 12:13:31;;;;;;;3.00;2.47;;;;;;;;;;4147174;28;20438;-66
2023/10/09 12:15:38;;;;;;;3.88;2.03;;;;;;;;;;4146060;28;20069;-65
2023/10/09 12:17:44;;;;;;;6.25;2.30;;;;;;;;;;4146495;28;20056;-64
2023/10/09 12:19:47;;;;;;;2.70;2.15;;;;;;;;;;4147277;28;20520;-64
2023/10/09 12:21:49;;;;;;;2.67;2.30;;;;;;;;;;4147189;28;20046;-65
2023/10/09 12:23:50;;;;;;;;;;;;;;;;;;4147663;28;20473;-66
2023/10/09 12:25:56;;;;;;;2.47;1.88;;;;;;;;;;4147261;28;20289;-64
2023/10/09 12:28:01;;;;;;;3.15;2.03;;;;;;;;;;4147256;28;20100;-64
2023/10/09 12:30:03;;;;;;;5.20;2.20;;;;;;;;;;4146157;28;20034;-66
2023/10/09 12:32:10;;;;;;;6.57;2.47;;;;;;;;;;4146973;28;20045;-65
2023/10/09 12:34:16;;;;;;;5.05;2.25;;;;;;;;;;4146790;28;20405;-66
2023/10/09 12:36:19;;;;;;;3.55;2.03;;;;;;;;;;4149703;28;20041;-66
2023/10/09 12:38:22;;;;;;;8.77;2.33;;;;;;;;;;4149766;28;20040;-65
2023/10/09 12:40:24;;;;;;;2.42;1.75;;;;;;;;;;4147514;28;20418;-61
2023/10/09 12:42:28;;;;;;;2.63;1.58;;;;;;;;;;4144693;28;20549;-61
2023/10/09 12:44:29;;;;;;;3.50;1.33;;;;;;;;;;4147362;28;20041;-61
2023/10/09 12:46:37;;;;;;;4.93;2.28;;;;;;;;;;4147875;28;20054;-61
2023/10/09 12:48:45;;;;;;;5.00;1.83;;;;;;;;;;4143767;28;20049;-61
2023/10/09 12:50:53;;;;;;;3.88;1.50;;;;;;;;;;4150178;28;20070;-61
2023/10/09 12:52:56;;;;;;;7.45;1.58;;;;;;;;;;4150059;28;20535;-61
2023/10/09 12:54:58;;;;;;;2.40;1.67;;;;;;;;;;4145652;28;20045;-61
2023/10/09 12:56:59;;;;;;;5.00;1.67;;;;;;;;;;4148356;28;20030;-61
2023/10/09 12:59:01;;;;;;;10.30;1.90;;;;;;;;;;4146887;28;20038;-62
2023/10/09 13:01:11;;;;;;;1.42;1.27;;;;;;;;;;4146346;28;20129;-62
2023/10/09 13:03:19;;;;;;;4.40;1.83;;;;;;;;;;4152525;28;20518;-61
2023/10/09 13:05:27;;;;;;;2.88;1.25;;;;;;;;;;4148036;28;20034;-62
2023/10/09 13:07:28;;;;;;;3.20;1.13;;;;;;;;;;4156174;28;20502;-62
2023/10/09 13:09:42;;;;;;;3.60;1.38;;;;;;;;;;4149077;28;20132;-61
2023/10/09 13:11:48;;;;;;;1.60;1.00;;;;;;;;;;4133958;28;20077;-61
2023/10/09 13:13:52;;;;;;;2.70;1.20;;;;;;;;;;4149236;28;20727;-61
2023/10/09 13:15:54;;;;;;;3.55;1.80;;;;;;;;;;4145831;28;20096;-62
2023/10/09 13:17:56;;;;;;;3.40;1.60;;;;;;;;;;4143857;28;20142;-61
2023/10/09 13:19:57;;;;;;;2.88;1.30;;;;;;;;;;4142711;28;20406;-62
2023/10/09 13:22:02;;;;;;;3.28;0.90;;;;;;;;;;4143849;28;20133;-61
2023/10/09 13:24:04;;;;;;;5.20;1.00;;;;;;;;;;4148490;28;20121;-62
2023/10/09 13:26:17;;;;;;;;;;;;;;;;;;4148628;28;20060;-62
2023/10/09 13:28:32;;;;;;;4.53;0.90;;;;;;;;;;4148150;28;19980;-62
2023/10/09 13:30:39;;;;;;;4.07;0.88;;;;;;;;;;4147942;28;20070;-61
2023/10/09 13:32:48;;;;;;;1.35;1.23;;;;;;;;;;4149070;28;20073;-62
2023/10/09 13:34:50;;;;;;;4.95;1.33;;;;;;;;;;4147829;28;20038;-62
2023/10/09 13:36:56;;;;;;;;;;;;;;;;;;4149592;28;20046;-62
2023/10/09 13:41:20;;;;;;;2.53;0.82;;;;;;;;;;4148579;28;20042;-61
2023/10/09 13:43:25;;;;;;;1.50;1.08;;;;;;;;;;4149378;28;20050;-62
2023/10/09 13:45:28;;;;;;;2.55;0.90;;;;;;;;;;4145866;28;20068;-62
2023/10/09 13:47:31;;;;;;;3.50;0.95;;;;;;;;;;4143223;28;20092;-62
2023/10/09 13:49:34;;;;;;;2.75;0.80;;;;;;;;;;4149109;28;20149;-62
2023/10/09 13:51:36;;;;;;;3.10;0.93;;;;;;;;;;4147581;28;20136;-62
2023/10/09 13:53:44;;;;;;;3.70;0.88;;;;;;;;;;4147052;28;20110;-61
2023/10/09 13:55:47;;;;;;;2.80;0.80;;;;;;;;;;4145038;28;20046;-61
2023/10/09 13:57:49;;;;;;;4.03;0.90;;;;;;;;;;4147473;28;20057;-62
2023/10/09 13:59:51;;;;;;;1.98;0.70;;;;;;;;;;4147323;28;20534;-62
2023/10/09 14:01:56;;;;;;;2.80;0.80;;;;;;;;;;4134641;28;20502;-62
2023/10/09 14:03:58;;;;;;;2.83;0.80;;;;;;;;;;4134974;28;20518;-62
2023/10/09 14:06:10;;;;;;;1.50;0.77;;;;;;;;;;4154329;28;20402;-61
2023/10/09 14:08:15;;;;;;;4.15;0.98;;;;;;;;;;4146558;28;20038;-62
2023/10/09 14:10:17;;;;;;;9.30;1.27;;;;;;;;;;4148487;28;20121;-62
2023/10/09 14:12:21;;;;;;;;;;;;;;;;;;4146950;28;20050;-62
2023/10/09 14:14:25;;;;;;;2.90;0.70;;;;;;;;;;4148554;28;19928;-61
2023/10/09 14:16:27;;;;;;;5.18;0.70;;;;;;;;;;4148198;28;20063;-61
2023/10/09 14:18:29;;;;;;;5.38;1.05;;;;;;;;;;4146474;28;20068;-61
2023/10/09 14:20:32;;;;;;;6.07;0.90;;;;;;;;;;4147688;28;20525;-62
2023/10/09 14:22:38;;;;;;;;;;;;;;;;;;4147583;28;20104;-62
2023/10/09 14:24:39;;;;;;;2.28;1.05;;;;;;;;;;4148193;28;20008;-61
2023/10/09 14:26:42;;;;;;;6.50;0.90;;;;;;;;;;4144942;28;20153;-61
2023/10/09 14:28:44;;;;;;;5.05;0.80;;;;;;;;;;4146695;28;20045;-62
2023/10/09 14:30:50;;;;;;;3.15;0.90;;;;;;;;;;4132508;28;20122;-61
2023/10/09 14:32:55;;;;;;;2.70;0.70;;;;;;;;;;4134008;28;20042;-61